sensor_id;sensor_type;location;lat;lon;timestamp;pressure;altitude;pressure_sealevel;temperature;humidity
4590;BME280;2307;48.448;9.216;2023-02-19T00:01:27;95931.53;;;9.94;100.00
4590;BME280;2307;48.448;9.216;2023-02-19T00:03:54;95935.19;;;9.93;100.00
4590;BME280;2307;48.448;9.216;2023-02-19T00:06:21;95922.00;;;9.93;100.00
4590;BME280;2307;48.448;9.216;2023-02-19T00:08:48;95924.69;;;9.86;100.00
4590;BME280;2307;48.448;9.216;2023-02-19T00:11:15;95919.41;;;9.86;100.00
4590;BME280;2307;48.448;9.216;2023-02-19T00:13:42;95920.22;;;9.87;100.00
4590;BME280;2307;48.448;9.216;2023-02-19T00:16:10;95920.22;;;9.87;100.00
4590;BME280;2307;48.448;9.216;2023-02-19T00:18:39;95930.78;;;9.87;100.00
4590;BME280;2307;48.448;9.216;2023-02-19T00:21:05;95916.72;;;9.93;100.00
4590;BME280;2307;48.448;9.216;2023-02-19T00:23:32;95915.25;;;9.79;100.00
4590;BME280;2307;48.448;9.216;2023-02-19T00:26:00;95915.66;;;9.76;100.00
4590;BME280;2307;48.448;9.216;2023-02-19T00:28:27;95926.16;;;9.82;100.00
4590;BME280;2307;48.448;9.216;2023-02-19T00:30:53;95913.63;;;9.78;100.00
4590;BME280;2307;48.448;9.216;2023-02-19T00:33:19;95913.78;;;9.83;100.00
4590;BME280;2307;48.448;9.216;2023-02-19T00:35:47;95917.22;;;9.83;100.00
4590;BME280;2307;48.448;9.216;2023-02-19T00:38:13;95911.16;;;9.83;100.00
4590;BME280;2307;48.448;9.216;2023-02-19T00:40:40;95903.69;;;9.80;100.00
4590;BME280;2307;48.448;9.216;2023-02-19T00:43:06;95907.47;;;9.84;100.00
4590;BME280;2307;48.448;9.216;2023-02-19T00:45:33;95904.69;;;9.79;100.00
4590;BME280;2307;48.448;9.216;2023-02-19T00:48:00;95906.31;;;9.80;100.00
4590;BME280;2307;48.448;9.216;2023-02-19T00:50:26;95903.00;;;9.84;100.00
4590;BME280;2307;48.448;9.216;2023-02-19T00:52:54;95907.53;;;9.77;100.00
4590;BME280;2307;48.448;9.216;2023-02-19T00:55:20;95904.75;;;9.72;100.00
4590;BME280;2307;48.448;9.216;2023-02-19T00:57:46;95903.56;;;9.68;100.00
4590;BME280;2307;48.448;9.216;2023-02-19T01:00:13;95905.69;;;9.78;100.00
4590;BME280;2307;48.448;9.216;2023-02-19T01:05:24;95909.53;;;9.82;100.00
4590;BME280;2307;48.448;9.216;2023-02-19T01:07:50;95907.84;;;9.87;100.00
4590;BME280;2307;48.448;9.216;2023-02-19T01:10:18;95911.34;;;9.81;100.00
4590;BME280;2307;48.448;9.216;2023-02-19T01:12:45;95915.94;;;9.92;100.00
4590;BME280;2307;48.448;9.216;2023-02-19T01:15:11;95903.06;;;9.78;100.00
4590;BME280;2307;48.448;9.216;2023-02-19T01:17:37;95899.47;;;9.72;100.00
4590;BME280;2307;48.448;9.216;2023-02-19T01:20:04;95895.31;;;9.83;100.00
4590;BME280;2307;48.448;9.216;2023-02-19T01:22:30;95904.47;;;9.80;100.00
4590;BME280;2307;48.448;9.216;2023-02-19T01:24:57;95903.38;;;9.88;100.00
4590;BME280;2307;48.448;9.216;2023-02-19T01:27:27;95901.94;;;9.92;100.00
4590;BME280;2307;48.448;9.216;2023-02-19T01:29:53;95897.97;;;10.01;100.00
4590;BME280;2307;48.448;9.216;2023-02-19T01:32:19;95890.47;;;9.80;100.00
4590;BME280;2307;48.448;9.216;2023-02-19T01:34:46;95874.34;;;9.70;100.00
4590;BME280;2307;48.448;9.216;2023-02-19T01:37:12;95880.56;;;9.75;100.00
4590;BME280;2307;48.448;9.216;2023-02-19T01:39:38;95889.88;;;9.78;100.00
4590;BME280;2307;48.448;9.216;2023-02-19T01:42:06;95892.56;;;9.71;100.00
4590;BME280;2307;48.448;9.216;2023-02-19T01:47:23;95895.88;;;9.67;100.00
4590;BME280;2307;48.448;9.216;2023-02-19T01:49:50;95888.91;;;9.72;100.00
4590;BME280;2307;48.448;9.216;2023-02-19T01:52:20;95885.47;;;9.72;100.00
4590;BME280;2307;48.448;9.216;2023-02-19T01:54:47;95879.25;;;9.66;100.00
4590;BME280;2307;48.448;9.216;2023-02-19T01:57:15;95874.78;;;9.67;100.00
4590;BME280;2307;48.448;9.216;2023-02-19T01:59:44;95863.03;;;9.63;100.00
4590;BME280;2307;48.448;9.216;2023-02-19T02:02:12;95869.78;;;9.77;100.00
4590;BME280;2307;48.448;9.216;2023-02-19T02:04:40;95849.56;;;9.71;100.00
4590;BME280;2307;48.448;9.216;2023-02-19T02:07:06;95862.47;;;9.60;100.00
4590;BME280;2307;48.448;9.216;2023-02-19T02:09:53;95850.44;;;9.65;100.00
4590;BME280;2307;48.448;9.216;2023-02-19T02:12:37;95854.13;;;9.64;100.00
4590;BME280;2307;48.448;9.216;2023-02-19T02:15:04;95850.81;;;9.68;100.00
4590;BME280;2307;48.448;9.216;2023-02-19T02:17:33;95848.03;;;9.63;100.00
4590;BME280;2307;48.448;9.216;2023-02-19T02:20:15;95855.66;;;9.71;100.00
4590;BME280;2307;48.448;9.216;2023-02-19T02:22:46;95862.53;;;9.72;100.00
4590;BME280;2307;48.448;9.216;2023-02-19T02:28:05;95867.16;;;9.77;100.00
4590;BME280;2307;48.448;9.216;2023-02-19T02:30:40;95867.53;;;9.80;100.00
4590;BME280;2307;48.448;9.216;2023-02-19T02:33:11;95880.66;;;9.87;100.00
4590;BME280;2307;48.448;9.216;2023-02-19T02:35:40;95868.50;;;9.86;100.00
4590;BME280;2307;48.448;9.216;2023-02-19T02:38:07;95877.28;;;9.80;100.00
4590;BME280;2307;48.448;9.216;2023-02-19T02:40:36;95872.22;;;9.78;100.00
4590;BME280;2307;48.448;9.216;2023-02-19T02:43:04;95866.13;;;9.78;100.00
4590;BME280;2307;48.448;9.216;2023-02-19T02:45:31;95864.38;;;9.72;100.00
4590;BME280;2307;48.448;9.216;2023-02-19T02:48:03;95858.22;;;9.78;100.00
4590;BME280;2307;48.448;9.216;2023-02-19T02:50:33;95855.38;;;9.79;100.00
4590;BME280;2307;48.448;9.216;2023-02-19T02:53:02;95859.22;;;9.77;100.00
4590;BME280;2307;48.448;9.216;2023-02-19T02:55:48;95855.59;;;9.78;100.00
4590;BME280;2307;48.448;9.216;2023-02-19T02:58:17;95846.84;;;9.77;100.00
4590;BME280;2307;48.448;9.216;2023-02-19T03:00:46;95852.25;;;9.64;100.00
4590;BME280;2307;48.448;9.216;2023-02-19T03:03:33;95835.22;;;9.67;100.00
4590;BME280;2307;48.448;9.216;2023-02-19T03:06:01;95837.53;;;9.56;100.00
4590;BME280;2307;48.448;9.216;2023-02-19T03:08:30;95834.91;;;9.56;100.00
4590;BME280;2307;48.448;9.216;2023-02-19T03:10:58;95822.72;;;9.55;100.00
4590;BME280;2307;48.448;9.216;2023-02-19T03:13:46;95820.53;;;9.52;100.00
4590;BME280;2307;48.448;9.216;2023-02-19T03:16:31;95817.75;;;9.47;100.00
4590;BME280;2307;48.448;9.216;2023-02-19T03:19:19;95791.81;;;9.44;100.00
4590;BME280;2307;48.448;9.216;2023-02-19T03:21:49;95804.56;;;9.47;100.00
4590;BME280;2307;48.448;9.216;2023-02-19T03:24:16;95810.09;;;9.39;100.00
4590;BME280;2307;48.448;9.216;2023-02-19T03:27:01;95816.75;;;9.42;100.00
4590;BME280;2307;48.448;9.216;2023-02-19T03:29:30;95819.41;;;9.42;100.00
4590;BME280;2307;48.448;9.216;2023-02-19T03:31:57;95813.56;;;9.40;100.00
4590;BME280;2307;48.448;9.216;2023-02-19T03:34:27;95816.00;;;9.41;100.00
4590;BME280;2307;48.448;9.216;2023-02-19T03:36:57;95807.63;;;9.44;100.00
4590;BME280;2307;48.448;9.216;2023-02-19T03:39:26;95813.34;;;9.41;100.00
4590;BME280;2307;48.448;9.216;2023-02-19T03:41:55;95812.16;;;9.37;100.00
4590;BME280;2307;48.448;9.216;2023-02-19T03:44:24;95809.53;;;9.37;100.00
4590;BME280;2307;48.448;9.216;2023-02-19T03:46:55;95817.44;;;9.37;100.00
4590;BME280;2307;48.448;9.216;2023-02-19T03:49:23;95819.84;;;9.39;100.00
4590;BME280;2307;48.448;9.216;2023-02-19T03:51:55;95823.66;;;9.43;100.00
4590;BME280;2307;48.448;9.216;2023-02-19T03:54:28;95822.66;;;9.44;100.00
4590;BME280;2307;48.448;9.216;2023-02-19T03:56:58;95829.53;;;9.45;100.00
4590;BME280;2307;48.448;9.216;2023-02-19T03:59:26;95833.41;;;9.42;100.00
4590;BME280;2307;48.448;9.216;2023-02-19T04:01:56;95835.22;;;9.42;100.00
4590;BME280;2307;48.448;9.216;2023-02-19T04:04:24;95840.66;;;9.47;100.00
4590;BME280;2307;48.448;9.216;2023-02-19T04:06:54;95844.22;;;9.34;100.00
4590;BME280;2307;48.448;9.216;2023-02-19T04:09:21;95848.97;;;9.26;100.00
4590;BME280;2307;48.448;9.216;2023-02-19T04:11:49;95842.22;;;9.30;100.00
4590;BME280;2307;48.448;9.216;2023-02-19T04:14:17;95837.13;;;9.35;100.00
4590;BME280;2307;48.448;9.216;2023-02-19T04:16:46;95840.56;;;9.35;100.00
4590;BME280;2307;48.448;9.216;2023-02-19T04:19:15;95857.59;;;9.33;100.00
4590;BME280;2307;48.448;9.216;2023-02-19T04:21:44;95857.03;;;9.31;100.00
4590;BME280;2307;48.448;9.216;2023-02-19T04:24:14;95847.88;;;9.33;100.00
4590;BME280;2307;48.448;9.216;2023-02-19T04:26:41;95856.75;;;9.39;100.00
4590;BME280;2307;48.448;9.216;2023-02-19T04:29:09;95859.22;;;9.34;100.00
4590;BME280;2307;48.448;9.216;2023-02-19T04:31:35;95865.31;;;9.34;100.00
4590;BME280;2307;48.448;9.216;2023-02-19T04:34:03;95879.47;;;9.40;100.00
4590;BME280;2307;48.448;9.216;2023-02-19T04:36:29;95880.31;;;9.34;100.00
4590;BME280;2307;48.448;9.216;2023-02-19T04:38:56;95868.63;;;9.23;100.00
4590;BME280;2307;48.448;9.216;2023-02-19T04:41:24;95881.22;;;9.21;100.00
4590;BME280;2307;48.448;9.216;2023-02-19T04:43:50;95887.69;;;9.25;100.00
4590;BME280;2307;48.448;9.216;2023-02-19T04:46:16;95883.72;;;9.16;100.00
4590;BME280;2307;48.448;9.216;2023-02-19T04:48:43;95886.06;;;9.24;100.00
4590;BME280;2307;48.448;9.216;2023-02-19T04:51:09;95891.78;;;9.21;100.00
4590;BME280;2307;48.448;9.216;2023-02-19T04:53:36;95894.50;;;9.08;100.00
4590;BME280;2307;48.448;9.216;2023-02-19T04:56:04;95896.69;;;9.11;100.00
4590;BME280;2307;48.448;9.216;2023-02-19T04:58:32;95894.53;;;9.01;100.00
4590;BME280;2307;48.448;9.216;2023-02-19T05:00:58;95896.94;;;9.10;100.00
4590;BME280;2307;48.448;9.216;2023-02-19T05:03:24;95903.25;;;9.02;100.00
4590;BME280;2307;48.448;9.216;2023-02-19T05:05:51;95913.41;;;8.98;100.00
4590;BME280;2307;48.448;9.216;2023-02-19T05:08:17;95910.22;;;8.90;100.00
4590;BME280;2307;48.448;9.216;2023-02-19T05:10:44;95914.34;;;8.73;100.00
4590;BME280;2307;48.448;9.216;2023-02-19T05:13:10;95938.28;;;8.65;100.00
4590;BME280;2307;48.448;9.216;2023-02-19T05:15:38;95915.25;;;8.47;100.00
4590;BME280;2307;48.448;9.216;2023-02-19T05:18:04;95924.19;;;8.46;100.00
4590;BME280;2307;48.448;9.216;2023-02-19T05:20:30;95922.16;;;8.48;100.00
4590;BME280;2307;48.448;9.216;2023-02-19T05:22:57;95915.28;;;8.40;100.00
4590;BME280;2307;48.448;9.216;2023-02-19T05:25:23;95920.56;;;8.40;100.00
4590;BME280;2307;48.448;9.216;2023-02-19T05:27:49;95929.66;;;8.44;100.00
4590;BME280;2307;48.448;9.216;2023-02-19T05:30:38;95917.13;;;8.46;100.00
4590;BME280;2307;48.448;9.216;2023-02-19T05:33:04;95916.09;;;8.41;100.00
4590;BME280;2307;48.448;9.216;2023-02-19T05:35:30;95925.44;;;8.43;100.00
4590;BME280;2307;48.448;9.216;2023-02-19T05:37:57;95928.69;;;8.32;100.00
4590;BME280;2307;48.448;9.216;2023-02-19T05:40:23;95927.47;;;8.35;100.00
4590;BME280;2307;48.448;9.216;2023-02-19T05:42:49;95938.81;;;8.35;100.00
4590;BME280;2307;48.448;9.216;2023-02-19T05:45:16;95935.97;;;8.37;100.00
4590;BME280;2307;48.448;9.216;2023-02-19T05:47:44;95930.69;;;8.43;100.00
4590;BME280;2307;48.448;9.216;2023-02-19T05:50:10;95937.13;;;8.47;100.00
4590;BME280;2307;48.448;9.216;2023-02-19T05:52:36;95936.53;;;8.45;100.00
4590;BME280;2307;48.448;9.216;2023-02-19T05:55:03;95940.19;;;8.44;100.00
4590;BME280;2307;48.448;9.216;2023-02-19T05:57:29;95951.34;;;8.46;100.00
4590;BME280;2307;48.448;9.216;2023-02-19T05:59:56;95936.13;;;8.48;100.00
4590;BME280;2307;48.448;9.216;2023-02-19T06:02:22;95941.41;;;8.42;100.00
4590;BME280;2307;48.448;9.216;2023-02-19T06:04:50;95951.34;;;8.46;100.00
4590;BME280;2307;48.448;9.216;2023-02-19T06:07:16;95951.75;;;8.43;100.00
4590;BME280;2307;48.448;9.216;2023-02-19T06:09:42;95952.13;;;8.40;100.00
4590;BME280;2307;48.448;9.216;2023-02-19T06:12:09;95952.13;;;8.40;100.00
4590;BME280;2307;48.448;9.216;2023-02-19T06:14:35;95954.78;;;8.40;100.00
4590;BME280;2307;48.448;9.216;2023-02-19T06:17:01;95957.63;;;8.39;100.00
4590;BME280;2307;48.448;9.216;2023-02-19T06:19:28;95955.81;;;8.39;100.00
4590;BME280;2307;48.448;9.216;2023-02-19T06:21:55;95958.84;;;8.36;100.00
4590;BME280;2307;48.448;9.216;2023-02-19T06:24:22;95966.13;;;8.34;100.00
4590;BME280;2307;48.448;9.216;2023-02-19T06:26:48;95959.44;;;8.38;100.00
4590;BME280;2307;48.448;9.216;2023-02-19T06:29:15;95969.56;;;8.41;100.00
4590;BME280;2307;48.448;9.216;2023-02-19T06:31:41;95973.19;;;8.40;100.00
4590;BME280;2307;48.448;9.216;2023-02-19T06:34:08;95978.06;;;8.43;100.00
4590;BME280;2307;48.448;9.216;2023-02-19T06:36:35;95986.75;;;8.44;100.00
4590;BME280;2307;48.448;9.216;2023-02-19T06:39:03;96000.31;;;8.41;100.00
4590;BME280;2307;48.448;9.216;2023-02-19T06:41:30;95994.66;;;8.37;100.00
4590;BME280;2307;48.448;9.216;2023-02-19T06:43:56;96006.41;;;8.35;100.00
4590;BME280;2307;48.448;9.216;2023-02-19T06:46:23;96019.41;;;8.30;100.00
4590;BME280;2307;48.448;9.216;2023-02-19T06:48:49;96027.47;;;8.35;100.00
4590;BME280;2307;48.448;9.216;2023-02-19T06:51:16;96036.00;;;8.30;100.00
4590;BME280;2307;48.448;9.216;2023-02-19T06:53:46;96037.00;;;8.29;100.00
4590;BME280;2307;48.448;9.216;2023-02-19T06:56:22;96042.06;;;8.24;100.00
4590;BME280;2307;48.448;9.216;2023-02-19T06:58:49;96041.03;;;8.25;100.00
4590;BME280;2307;48.448;9.216;2023-02-19T07:01:15;96043.28;;;8.28;100.00
4590;BME280;2307;48.448;9.216;2023-02-19T07:03:42;96048.31;;;8.23;100.00
4590;BME280;2307;48.448;9.216;2023-02-19T07:06:08;96061.69;;;8.28;100.00
4590;BME280;2307;48.448;9.216;2023-02-19T07:08:35;96063.09;;;8.11;100.00
4590;BME280;2307;48.448;9.216;2023-02-19T07:11:01;96086.16;;;7.96;100.00
4590;BME280;2307;48.448;9.216;2023-02-19T07:13:29;96067.53;;;7.78;100.00
4590;BME280;2307;48.448;9.216;2023-02-19T07:15:56;96078.84;;;7.65;100.00
4590;BME280;2307;48.448;9.216;2023-02-19T07:18:23;96078.78;;;7.45;100.00
4590;BME280;2307;48.448;9.216;2023-02-19T07:20:50;96094.16;;;7.42;100.00
4590;BME280;2307;48.448;9.216;2023-02-19T07:23:16;96085.22;;;7.36;100.00
4590;BME280;2307;48.448;9.216;2023-02-19T07:25:42;96088.88;;;7.35;100.00
4590;BME280;2307;48.448;9.216;2023-02-19T07:28:09;96088.66;;;7.30;100.00
4590;BME280;2307;48.448;9.216;2023-02-19T07:30:37;96102.19;;;7.27;100.00
4590;BME280;2307;48.448;9.216;2023-02-19T07:33:03;96100.75;;;7.25;100.00
4590;BME280;2307;48.448;9.216;2023-02-19T07:35:29;96084.38;;;7.29;100.00
4590;BME280;2307;48.448;9.216;2023-02-19T07:37:56;96083.22;;;7.32;100.00
4590;BME280;2307;48.448;9.216;2023-02-19T07:40:22;96091.13;;;7.38;100.00
4590;BME280;2307;48.448;9.216;2023-02-19T07:42:49;96092.31;;;7.42;100.00
4590;BME280;2307;48.448;9.216;2023-02-19T07:45:15;96095.59;;;7.51;100.00
4590;BME280;2307;48.448;9.216;2023-02-19T07:47:43;96095.38;;;7.53;100.00
4590;BME280;2307;48.448;9.216;2023-02-19T07:50:09;96111.16;;;7.53;100.00
4590;BME280;2307;48.448;9.216;2023-02-19T07:52:36;96097.41;;;7.51;100.00
4590;BME280;2307;48.448;9.216;2023-02-19T07:55:02;96108.75;;;7.58;100.00
4590;BME280;2307;48.448;9.216;2023-02-19T07:57:29;96107.13;;;7.57;100.00
4590;BME280;2307;48.448;9.216;2023-02-19T07:59:55;96112.59;;;7.62;100.00
4590;BME280;2307;48.448;9.216;2023-02-19T08:02:22;96100.69;;;7.66;100.00
4590;BME280;2307;48.448;9.216;2023-02-19T08:05:05;96121.91;;;7.71;100.00
4590;BME280;2307;48.448;9.216;2023-02-19T08:07:31;96102.72;;;7.70;100.00
4590;BME280;2307;48.448;9.216;2023-02-19T08:09:58;96113.25;;;7.77;100.00
4590;BME280;2307;48.448;9.216;2023-02-19T08:12:38;96117.69;;;7.76;100.00
4590;BME280;2307;48.448;9.216;2023-02-19T08:15:22;96096.03;;;7.81;100.00
4590;BME280;2307;48.448;9.216;2023-02-19T08:17:49;96101.72;;;7.84;100.00
4590;BME280;2307;48.448;9.216;2023-02-19T08:20:17;96103.94;;;7.81;100.00
4590;BME280;2307;48.448;9.216;2023-02-19T08:22:43;96101.94;;;7.83;100.00
4590;BME280;2307;48.448;9.216;2023-02-19T08:25:09;96108.81;;;7.90;100.00
4590;BME280;2307;48.448;9.216;2023-02-19T08:27:36;96107.59;;;7.93;100.00
4590;BME280;2307;48.448;9.216;2023-02-19T08:30:02;96102.94;;;7.88;100.00
4590;BME280;2307;48.448;9.216;2023-02-19T08:32:29;96102.72;;;7.90;100.00
4590;BME280;2307;48.448;9.216;2023-02-19T08:34:55;96109.59;;;7.78;100.00
4590;BME280;2307;48.448;9.216;2023-02-19T08:37:23;96109.19;;;7.81;100.00
4590;BME280;2307;48.448;9.216;2023-02-19T08:39:50;96110.00;;;7.75;100.00
4590;BME280;2307;48.448;9.216;2023-02-19T08:42:16;96111.41;;;7.71;100.00
4590;BME280;2307;48.448;9.216;2023-02-19T08:44:43;96133.47;;;7.70;100.00
4590;BME280;2307;48.448;9.216;2023-02-19T08:47:09;96134.25;;;7.64;100.00
4590;BME280;2307;48.448;9.216;2023-02-19T08:49:35;96120.88;;;7.59;100.00
4590;BME280;2307;48.448;9.216;2023-02-19T08:52:02;96129.19;;;7.62;100.00
4590;BME280;2307;48.448;9.216;2023-02-19T08:54:30;96127.38;;;7.63;100.00
4590;BME280;2307;48.448;9.216;2023-02-19T08:56:56;96140.31;;;7.71;100.00
4590;BME280;2307;48.448;9.216;2023-02-19T08:59:23;96137.91;;;7.76;100.00
4590;BME280;2307;48.448;9.216;2023-02-19T09:01:49;96142.38;;;7.82;100.00
4590;BME280;2307;48.448;9.216;2023-02-19T09:04:16;96156.53;;;7.87;100.00
4590;BME280;2307;48.448;9.216;2023-02-19T09:06:43;96156.56;;;7.94;100.00
4590;BME280;2307;48.448;9.216;2023-02-19T09:09:09;96161.41;;;7.90;100.00
4590;BME280;2307;48.448;9.216;2023-02-19T09:11:38;96155.34;;;7.90;100.00
4590;BME280;2307;48.448;9.216;2023-02-19T09:14:05;96159.41;;;7.99;100.00
4590;BME280;2307;48.448;9.216;2023-02-19T09:16:31;96151.72;;;7.97;100.00
4590;BME280;2307;48.448;9.216;2023-02-19T09:18:58;96152.53;;;7.98;100.00
4590;BME280;2307;48.448;9.216;2023-02-19T09:21:24;96150.91;;;7.97;100.00
4590;BME280;2307;48.448;9.216;2023-02-19T09:23:51;96163.06;;;7.98;100.00
4590;BME280;2307;48.448;9.216;2023-02-19T09:26:17;96162.66;;;8.01;100.00
4590;BME280;2307;48.448;9.216;2023-02-19T09:28:45;96156.41;;;8.02;100.00
4590;BME280;2307;48.448;9.216;2023-02-19T09:31:12;96151.53;;;7.99;100.00
4590;BME280;2307;48.448;9.216;2023-02-19T09:33:40;96171.16;;;8.03;100.00
4590;BME280;2307;48.448;9.216;2023-02-19T09:36:07;96176.22;;;8.11;100.00
4590;BME280;2307;48.448;9.216;2023-02-19T09:38:34;96174.41;;;8.05;100.00
4590;BME280;2307;48.448;9.216;2023-02-19T09:41:04;96174.19;;;8.13;100.00
4590;BME280;2307;48.448;9.216;2023-02-19T09:43:31;96184.75;;;8.20;100.00
4590;BME280;2307;48.448;9.216;2023-02-19T09:46:00;96191.41;;;8.22;100.00
4590;BME280;2307;48.448;9.216;2023-02-19T09:48:28;96203.34;;;8.25;100.00
4590;BME280;2307;48.448;9.216;2023-02-19T09:50:54;96188.59;;;8.24;100.00
4590;BME280;2307;48.448;9.216;2023-02-19T09:53:23;96195.72;;;8.30;100.00
4590;BME280;2307;48.448;9.216;2023-02-19T09:55:50;96210.47;;;8.31;100.00
4590;BME280;2307;48.448;9.216;2023-02-19T09:58:20;96209.28;;;8.33;100.00
4590;BME280;2307;48.448;9.216;2023-02-19T10:00:48;96214.97;;;8.30;100.00
4590;BME280;2307;48.448;9.216;2023-02-19T10:03:20;96220.22;;;8.30;100.00
4590;BME280;2307;48.448;9.216;2023-02-19T10:05:49;96221.41;;;8.28;100.00
4590;BME280;2307;48.448;9.216;2023-02-19T10:08:17;96231.91;;;8.15;100.00
4590;BME280;2307;48.448;9.216;2023-02-19T10:10:43;96222.94;;;8.02;100.00
4590;BME280;2307;48.448;9.216;2023-02-19T10:13:12;96222.91;;;7.83;100.00
4590;BME280;2307;48.448;9.216;2023-02-19T10:15:42;96225.69;;;7.75;100.00
4590;BME280;2307;48.448;9.216;2023-02-19T10:18:10;96234.19;;;7.70;100.00
4590;BME280;2307;48.448;9.216;2023-02-19T10:20:38;96235.34;;;7.61;100.00
4590;BME280;2307;48.448;9.216;2023-02-19T10:23:05;96240.16;;;7.51;100.00
4590;BME280;2307;48.448;9.216;2023-02-19T10:25:33;96241.09;;;7.37;100.00
4590;BME280;2307;48.448;9.216;2023-02-19T10:28:00;96251.59;;;7.37;100.00
4590;BME280;2307;48.448;9.216;2023-02-19T10:30:28;96255.03;;;7.37;100.00
4590;BME280;2307;48.448;9.216;2023-02-19T10:32:58;96246.50;;;7.29;100.00
4590;BME280;2307;48.448;9.216;2023-02-19T10:35:25;96254.56;;;7.27;100.00
4590;BME280;2307;48.448;9.216;2023-02-19T10:37:53;96253.66;;;7.41;100.00
4590;BME280;2307;48.448;9.216;2023-02-19T10:40:20;96253.44;;;7.43;100.00
4590;BME280;2307;48.448;9.216;2023-02-19T10:42:47;96252.97;;;7.33;100.00
4590;BME280;2307;48.448;9.216;2023-02-19T10:45:18;96248.47;;;7.20;100.00
4590;BME280;2307;48.448;9.216;2023-02-19T10:47:46;96260.38;;;7.16;100.00
4590;BME280;2307;48.448;9.216;2023-02-19T10:50:19;96255.41;;;7.00;100.00
4590;BME280;2307;48.448;9.216;2023-02-19T10:52:49;96273.78;;;7.00;100.00
4590;BME280;2307;48.448;9.216;2023-02-19T10:55:23;96266.09;;;6.99;100.00
4590;BME280;2307;48.448;9.216;2023-02-19T10:57:50;96270.56;;;7.05;100.00
4590;BME280;2307;48.448;9.216;2023-02-19T11:00:21;96276.91;;;7.17;100.00
4590;BME280;2307;48.448;9.216;2023-02-19T11:02:50;96278.44;;;7.26;100.00
4590;BME280;2307;48.448;9.216;2023-02-19T11:05:37;96280.50;;;7.37;100.00
4590;BME280;2307;48.448;9.216;2023-02-19T11:08:14;96284.59;;;7.46;100.00
4590;BME280;2307;48.448;9.216;2023-02-19T11:10:47;96275.06;;;7.38;100.00
4590;BME280;2307;48.448;9.216;2023-02-19T11:13:19;96266.53;;;7.36;100.00
4590;BME280;2307;48.448;9.216;2023-02-19T11:15:49;96268.56;;;7.34;100.00
4590;BME280;2307;48.448;9.216;2023-02-19T11:18:18;96265.59;;;7.44;100.00
4590;BME280;2307;48.448;9.216;2023-02-19T11:20:47;96263.81;;;7.51;100.00
4590;BME280;2307;48.448;9.216;2023-02-19T11:23:15;96261.22;;;7.58;100.00
4590;BME280;2307;48.448;9.216;2023-02-19T11:25:43;96250.34;;;7.67;100.00
4590;BME280;2307;48.448;9.216;2023-02-19T11:28:19;96238.63;;;7.70;100.00
4590;BME280;2307;48.448;9.216;2023-02-19T11:30:47;96231.94;;;7.74;100.00
4590;BME280;2307;48.448;9.216;2023-02-19T11:33:20;96222.28;;;7.81;100.00
4590;BME280;2307;48.448;9.216;2023-02-19T11:35:48;96226.97;;;7.92;100.00
4590;BME280;2307;48.448;9.216;2023-02-19T11:38:15;96221.53;;;8.07;100.00
4590;BME280;2307;48.448;9.216;2023-02-19T11:40:43;96229.88;;;8.23;100.00
4590;BME280;2307;48.448;9.216;2023-02-19T11:43:25;96227.84;;;8.25;100.00
4590;BME280;2307;48.448;9.216;2023-02-19T11:45:57;96218.75;;;8.21;100.00
4590;BME280;2307;48.448;9.216;2023-02-19T11:48:45;96219.16;;;8.12;100.00
4590;BME280;2307;48.448;9.216;2023-02-19T11:54:06;96223.34;;;8.06;100.00
4590;BME280;2307;48.448;9.216;2023-02-19T11:56:36;96217.13;;;8.20;100.00
4590;BME280;2307;48.448;9.216;2023-02-19T11:59:06;96225.03;;;8.20;100.00
4590;BME280;2307;48.448;9.216;2023-02-19T12:01:42;96231.53;;;8.24;100.00
4590;BME280;2307;48.448;9.216;2023-02-19T12:04:19;96231.91;;;8.21;100.00
4590;BME280;2307;48.448;9.216;2023-02-19T12:06:52;96239.56;;;8.10;100.00
4590;BME280;2307;48.448;9.216;2023-02-19T12:09:28;96244.03;;;8.16;100.00
4590;BME280;2307;48.448;9.216;2023-02-19T12:12:09;96234.31;;;8.16;100.00
4590;BME280;2307;48.448;9.216;2023-02-19T12:14:48;96241.78;;;8.06;100.00
4590;BME280;2307;48.448;9.216;2023-02-19T12:17:28;96241.16;;;7.97;100.00
4590;BME280;2307;48.448;9.216;2023-02-19T12:20:01;96250.28;;;8.01;100.00
4590;BME280;2307;48.448;9.216;2023-02-19T12:22:32;96254.75;;;8.08;100.00
4590;BME280;2307;48.448;9.216;2023-02-19T12:27:54;96272.41;;;8.27;100.00
4590;BME280;2307;48.448;9.216;2023-02-19T12:30:30;96272.06;;;8.36;100.00
4590;BME280;2307;48.448;9.216;2023-02-19T12:33:05;96262.75;;;8.40;100.00
4590;BME280;2307;48.448;9.216;2023-02-19T12:35:45;96271.69;;;8.52;100.00
4590;BME280;2307;48.448;9.216;2023-02-19T12:38:18;96264.59;;;8.60;100.00
4590;BME280;2307;48.448;9.216;2023-02-19T12:40:49;96271.09;;;8.77;100.00
4590;BME280;2307;48.448;9.216;2023-02-19T12:43:20;96267.06;;;8.74;100.00
4590;BME280;2307;48.448;9.216;2023-02-19T12:45:48;96252.47;;;8.59;100.00
4590;BME280;2307;48.448;9.216;2023-02-19T12:48:19;96237.25;;;8.54;100.00
4590;BME280;2307;48.448;9.216;2023-02-19T12:50:50;96242.94;;;8.58;100.00
4590;BME280;2307;48.448;9.216;2023-02-19T12:53:23;96241.94;;;8.59;100.00
4590;BME280;2307;48.448;9.216;2023-02-19T12:55:55;96222.88;;;8.57;100.00
4590;BME280;2307;48.448;9.216;2023-02-19T12:58:24;96233.81;;;8.53;100.00
4590;BME280;2307;48.448;9.216;2023-02-19T13:00:54;96231.59;;;8.57;100.00
4590;BME280;2307;48.448;9.216;2023-02-19T13:03:25;96236.03;;;8.70;100.00
4590;BME280;2307;48.448;9.216;2023-02-19T13:05:54;96237.28;;;8.87;100.00
4590;BME280;2307;48.448;9.216;2023-02-19T13:08:24;96227.31;;;9.02;100.00
4590;BME280;2307;48.448;9.216;2023-02-19T13:10:53;96235.63;;;9.05;100.00
4590;BME280;2307;48.448;9.216;2023-02-19T13:13:21;96235.41;;;9.20;100.00
4590;BME280;2307;48.448;9.216;2023-02-19T13:15:49;96221.63;;;9.12;100.00
4590;BME280;2307;48.448;9.216;2023-02-19T13:18:19;96221.63;;;9.18;100.00
4590;BME280;2307;48.448;9.216;2023-02-19T13:20:46;96205.63;;;9.13;100.00
4590;BME280;2307;48.448;9.216;2023-02-19T13:23:16;96214.97;;;9.09;100.00
4590;BME280;2307;48.448;9.216;2023-02-19T13:26:11;96216.50;;;9.36;100.00
4590;BME280;2307;48.448;9.216;2023-02-19T13:28:46;96194.19;;;9.39;100.00
4590;BME280;2307;48.448;9.216;2023-02-19T13:34:01;96193.84;;;9.29;100.00
4590;BME280;2307;48.448;9.216;2023-02-19T13:36:30;96200.50;;;9.31;100.00
4590;BME280;2307;48.448;9.216;2023-02-19T13:38:58;96193.03;;;9.28;100.00
4590;BME280;2307;48.448;9.216;2023-02-19T13:41:26;96193.19;;;9.33;100.00
4590;BME280;2307;48.448;9.216;2023-02-19T13:43:57;96197.09;;;9.24;100.00
4590;BME280;2307;48.448;9.216;2023-02-19T13:46:24;96207.81;;;9.29;100.00
4590;BME280;2307;48.448;9.216;2023-02-19T13:51:47;96211.50;;;9.15;100.00